Time;durP1;ratioP1;P1;durP2;ratioP2;P2;SDS_P1;SDS_P2;PMS_P1;PMS_P2;Temp;Humidity;BMP_temperature;BMP_pressure;BME280_temperature;BME280_humidity;BME280_pressure;Samples;Min_cycle;Max_cycle;Signal;HPM_P1;HPM_P2
2021/03/17 00:00:54;;;;;;;6.80;1.57;;;;;;;2.12;84.50;101079.25;5051854;28;20205;-75
2021/03/17 00:03:21;;;;;;;7.37;1.90;;;;;;;2.03;84.32;101068.72;5045786;28;20257;-74
2021/03/17 00:05:48;;;;;;;9.13;3.17;;;;;;;2.01;84.51;101063.53;5042516;28;20205;-75
2021/03/17 00:08:14;;;;;;;8.13;2.00;;;;;;;2.09;84.42;101081.75;5046226;28;20628;-75
2021/03/17 00:10:42;;;;;;;3.90;1.73;;;;;;;2.22;83.93;101078.66;5043413;28;20272;-75
2021/03/17 00:13:09;;;;;;;8.37;2.03;;;;;;;2.24;83.72;101078.69;5039158;28;20229;-75
2021/03/17 00:15:37;;;;;;;5.53;1.80;;;;;;;2.15;83.63;101080.19;5040887;28;20202;-75
2021/03/17 00:18:04;;;;;;;4.93;1.83;;;;;;;2.09;84.48;101087.75;5051739;28;20722;-75
2021/03/17 00:20:31;;;;;;;6.27;1.77;;;;;;;2.10;84.15;101089.53;5044304;28;20214;-74
2021/03/17 00:22:57;;;;;;;5.30;1.60;;;;;;;2.12;84.75;101089.53;5038464;28;20748;-75
2021/03/17 00:25:27;;;;;;;3.83;1.63;;;;;;;2.10;84.62;101088.63;5039083;28;20206;-75
2021/03/17 00:27:53;;;;;;;9.53;1.70;;;;;;;2.11;84.59;101093.81;5051805;28;20227;-75
2021/03/17 00:30:20;;;;;;;3.20;1.43;;;;;;;2.09;85.08;101090.34;5045403;28;20194;-74
2021/03/17 00:32:46;;;;;;;6.87;2.23;;;;;;;2.08;85.13;101092.88;5034448;28;20234;-75
2021/03/17 00:35:12;;;;;;;6.73;1.80;;;;;;;2.09;84.51;101089.47;5041204;28;20213;-75
2021/03/17 00:37:39;;;;;;;4.13;1.60;;;;;;;2.13;84.12;101092.16;5049841;28;20706;-75
2021/03/17 00:40:06;;;;;;;10.10;1.80;;;;;;;2.13;84.89;101083.56;5044491;28;20193;-75
2021/03/17 00:42:32;;;;;;;3.67;1.40;;;;;;;2.10;84.49;101076.66;5051626;28;20226;-75
2021/03/17 00:44:58;;;;;;;6.60;1.50;;;;;;;2.13;84.35;101086.16;5035178;28;20198;-75
2021/03/17 00:47:25;;;;;;;8.87;1.70;;;;;;;2.12;84.16;101089.53;5051357;28;20657;-75
2021/03/17 00:49:51;;;;;;;8.27;1.80;;;;;;;2.13;83.66;101087.00;5035232;28;20198;-75
2021/03/17 00:52:17;;;;;;;7.70;1.80;;;;;;;2.10;84.31;101089.53;5051056;28;20229;-75
2021/03/17 00:54:43;;;;;;;4.50;1.40;;;;;;;2.09;84.04;101087.75;5035046;28;20210;-75
2021/03/17 00:57:09;;;;;;;4.87;1.60;;;;;;;2.09;83.40;101095.50;5048733;28;20217;-74
2021/03/17 00:59:35;;;;;;;6.37;2.10;;;;;;;2.08;83.89;101090.28;5039926;28;20259;-75
2021/03/17 01:02:01;;;;;;;7.57;1.50;;;;;;;2.09;83.29;101085.19;5050854;28;20225;-74
2021/03/17 01:04:27;;;;;;;7.87;2.60;;;;;;;2.09;83.58;101085.19;5036130;28;20202;-75
2021/03/17 01:06:53;;;;;;;4.13;1.50;;;;;;;2.10;83.20;101080.91;5050383;28;20197;-75
2021/03/17 01:09:19;;;;;;;5.57;2.10;;;;;;;2.08;83.46;101086.03;5036625;28;20217;-74
2021/03/17 01:11:45;;;;;;;4.87;1.53;;;;;;;2.07;84.04;101096.28;5049128;28;20209;-75
2021/03/17 01:14:11;;;;;;;8.03;1.40;;;;;;;2.07;84.53;101096.28;5038218;28;20213;-75
2021/03/17 01:16:38;;;;;;;5.57;1.50;;;;;;;2.13;84.25;101091.31;5044922;28;20229;-75
2021/03/17 01:19:04;;;;;;;4.27;1.50;;;;;;;2.13;84.86;101099.88;5038194;28;20203;-75
2021/03/17 01:21:30;;;;;;;5.23;1.47;;;;;;;2.24;84.95;101094.13;5031588;28;20206;-74
2021/03/17 01:23:56;;;;;;;9.43;2.43;;;;;;;2.38;84.40;101087.66;5037571;28;20631;-75
2021/03/17 01:26:22;;;;;;;4.07;1.77;;;;;;;2.45;84.64;101079.22;5046351;28;20202;-75
2021/03/17 01:28:49;;;;;;;4.70;2.00;;;;;;;2.52;83.87;101086.28;5050264;28;20663;-76
2021/03/17 01:31:15;;;;;;;3.03;1.47;;;;;;;2.50;81.99;101092.25;5037103;28;20291;-75
2021/03/17 01:33:41;;;;;;;4.23;1.40;;;;;;;2.53;80.36;101087.13;5037824;28;20609;-75
2021/03/17 01:36:07;;;;;;;7.27;1.57;;;;;;;2.60;81.79;101086.47;5044425;28;20201;-75
2021/03/17 01:38:34;;;;;;;3.33;2.10;;;;;;;2.47;82.30;101090.44;5042739;28;20233;-75
2021/03/17 01:41:00;;;;;;;4.43;2.10;;;;;;;2.27;83.83;101089.06;5042806;28;20202;-75
2021/03/17 01:43:26;;;;;;;3.13;1.70;;;;;;;2.32;82.85;101090.94;5043654;28;20225;-74
2021/03/17 01:45:53;;;;;;;4.67;1.83;;;;;;;2.21;82.99;101081.19;5042024;28;20207;-75
2021/03/17 01:48:20;;;;;;;3.83;1.50;;;;;;;2.32;83.15;101072.91;5044854;28;20205;-75
2021/03/17 01:50:49;;;;;;;5.73;1.73;;;;;;;2.26;83.50;101077.00;5041347;28;20198;-75
2021/03/17 01:53:18;;;;;;;6.37;1.80;;;;;;;2.19;83.72;101083.72;5037760;28;20225;-75
2021/03/17 01:55:45;;;;;;;6.87;1.40;;;;;;;2.26;83.00;101085.63;5050508;28;20206;-75
2021/03/17 01:58:12;;;;;;;5.07;1.67;;;;;;;2.29;83.72;101085.69;5049749;28;20224;-75
2021/03/17 02:00:40;;;;;;;3.03;1.30;;;;;;;2.31;83.13;101086.59;5042072;28;20205;-76
2021/03/17 02:03:08;;;;;;;4.90;1.40;;;;;;;2.29;82.96;101079.69;5036394;28;20228;-75
2021/03/17 02:05:40;;;;;;;5.20;1.50;;;;;;;2.27;82.09;101087.38;5042820;28;20205;-75
2021/03/17 02:08:08;;;;;;;2.97;1.57;;;;;;;2.33;82.36;101082.38;5037948;28;20205;-75
2021/03/17 02:10:35;;;;;;;3.77;1.80;;;;;;;2.24;81.90;101077.00;5038927;28;20202;-75
2021/03/17 02:13:29;;;;;;;4.93;1.63;;;;;;;2.23;82.62;101082.97;5046900;28;20226;-74
2021/03/17 02:16:03;;;;;;;2.97;1.63;;;;;;;2.25;83.25;101088.16;5042201;28;20202;-74
2021/03/17 02:18:41;;;;;;;5.17;2.03;;;;;;;2.36;83.18;101074.72;5042971;28;20206;-74
2021/03/17 02:21:32;;;;;;;5.80;1.90;;;;;;;2.28;82.56;101085.66;5046539;28;20205;-75
2021/03/17 02:24:08;;;;;;;5.23;1.80;;;;;;;2.42;82.05;101081.75;5048453;28;20210;-75
2021/03/17 02:26:55;;;;;;;6.87;2.20;;;;;;;2.34;82.10;101083.25;5053762;28;20212;-75
2021/03/17 02:29:46;;;;;;;5.53;2.30;;;;;;;2.28;83.17;101090.81;5040737;28;20259;-75
2021/03/17 02:32:18;;;;;;;4.43;2.07;;;;;;;2.39;83.74;101084.22;5035232;28;20286;-75
2021/03/17 02:34:47;;;;;;;6.60;2.40;;;;;;;2.23;84.11;101082.97;5051093;28;20198;-75
2021/03/17 02:37:16;;;;;;;4.17;1.83;;;;;;;2.12;84.83;101081.81;5038150;28;20221;-75
2021/03/17 02:39:46;;;;;;;4.47;2.53;;;;;;;1.97;85.31;101082.31;5037345;28;20207;-76
2021/03/17 02:42:17;;;;;;;6.17;2.60;;;;;;;1.87;86.68;101082.91;5053926;28;20222;-75
2021/03/17 02:44:45;;;;;;;6.27;2.40;;;;;;;1.84;86.60;101083.66;5037837;28;20202;-74
2021/03/17 02:47:13;;;;;;;4.60;2.27;;;;;;;1.85;86.63;101080.28;5053023;28;20209;-75
2021/03/17 02:49:42;;;;;;;5.10;2.23;;;;;;;1.75;87.46;101078.28;5037385;28;20202;-75
2021/03/17 02:52:09;;;;;;;8.57;2.77;;;;;;;1.67;87.81;101074.63;5051507;28;20234;-75
2021/03/17 02:54:36;;;;;;;11.47;3.50;;;;;;;1.65;88.00;101084.00;5050310;28;20703;-75
2021/03/17 02:57:05;;;;;;;6.13;2.83;;;;;;;1.63;87.36;101081.38;5051950;28;20222;-75
2021/03/17 02:59:33;;;;;;;4.13;2.53;;;;;;;1.64;87.23;101077.97;5041925;28;20206;-74
2021/03/17 03:02:01;;;;;;;5.40;2.93;;;;;;;1.64;87.26;101079.69;5053033;28;20225;-75
2021/03/17 03:04:28;;;;;;;7.17;2.37;;;;;;;1.62;86.21;101071.91;5038465;28;20198;-75
2021/03/17 03:06:56;;;;;;;7.53;2.50;;;;;;;1.70;85.68;101062.69;5052575;28;20194;-75
2021/03/17 03:09:26;;;;;;;6.73;2.73;;;;;;;1.73;85.38;101070.50;5041926;28;20198;-75
2021/03/17 03:11:54;;;;;;;3.13;2.23;;;;;;;1.87;85.25;101070.88;5052276;28;20225;-75
2021/03/17 03:14:21;;;;;;;4.43;2.13;;;;;;;1.95;84.45;101063.38;5039052;28;20209;-75
2021/03/17 03:16:48;;;;;;;4.90;2.57;;;;;;;1.83;85.54;101069.06;5051549;28;20354;-74
2021/03/17 03:19:16;;;;;;;8.57;2.77;;;;;;;1.92;85.33;101066.75;5039404;28;20210;-75
2021/03/17 03:21:43;;;;;;;8.00;2.90;;;;;;;1.79;84.68;101073.25;5051132;28;20572;-75
2021/03/17 03:24:09;;;;;;;5.93;2.87;;;;;;;1.88;85.20;101066.59;5040159;28;20206;-75
2021/03/17 03:26:36;;;;;;;4.77;2.43;;;;;;;1.79;85.59;101062.94;5050054;28;20209;-75
2021/03/17 03:29:04;;;;;;;9.23;2.87;;;;;;;1.80;85.59;101066.41;5038436;28;20772;-75
2021/03/17 03:31:30;;;;;;;3.53;2.70;;;;;;;1.82;86.41;101079.31;5053066;28;20216;-75
2021/03/17 03:33:56;;;;;;;7.53;3.00;;;;;;;1.74;86.70;101077.38;5040691;28;20285;-75
2021/03/17 03:36:24;;;;;;;5.17;3.00;;;;;;;1.76;86.38;101085.16;5048195;28;20279;-75
2021/03/17 03:38:50;;;;;;;5.07;3.00;;;;;;;1.77;87.29;101079.19;5042046;28;20233;-75
2021/03/17 03:41:16;;;;;;;6.57;2.60;;;;;;;1.85;86.59;101074.25;5046968;28;20201;-75
2021/03/17 03:43:43;;;;;;;4.53;2.80;;;;;;;1.83;86.22;101074.22;5043260;28;20256;-75
2021/03/17 03:46:09;;;;;;;3.80;2.87;;;;;;;1.75;86.85;101078.28;5046210;28;20737;-74
2021/03/17 03:48:36;;;;;;;7.77;2.63;;;;;;;1.78;87.11;101079.25;5046731;28;20201;-75
2021/03/17 03:51:03;;;;;;;3.57;2.63;;;;;;;1.84;86.58;101075.94;5040507;28;20201;-75
2021/03/17 03:53:54;;;;;;;4.67;2.67;;;;;;;1.82;86.85;101087.91;5039673;28;20238;-75
2021/03/17 03:56:27;;;;;;;3.40;2.40;;;;;;;1.79;86.67;101080.09;5047332;28;20582;-75
2021/03/17 03:58:57;;;;;;;4.43;2.30;;;;;;;1.73;86.76;101085.09;5038130;28;20206;-75
2021/03/17 04:01:28;;;;;;;6.90;3.60;;;;;;;1.74;86.85;101086.81;5052934;28;20217;-75
2021/03/17 04:03:57;;;;;;;5.57;2.87;;;;;;;1.67;86.85;101092.66;5041305;28;20210;-75
2021/03/17 04:06:24;;;;;;;5.67;3.13;;;;;;;1.62;87.31;101095.06;5047616;28;20738;-75
2021/03/17 04:08:54;;;;;;;2.87;2.20;;;;;;;1.65;87.56;101091.72;5041639;28;20205;-75
2021/03/17 04:11:22;;;;;;;10.00;2.57;;;;;;;1.69;86.57;101094.44;5047162;28;20201;-75
2021/03/17 04:13:49;;;;;;;2.87;2.40;;;;;;;1.78;86.79;101098.94;5041365;28;20253;-74
2021/03/17 04:16:20;;;;;;;5.83;2.90;;;;;;;1.84;86.80;101090.53;5046683;28;20197;-75
2021/03/17 04:18:48;;;;;;;5.17;3.00;;;;;;;1.87;85.74;101091.47;5042137;28;20206;-75
2021/03/17 04:21:18;;;;;;;6.73;3.53;;;;;;;1.99;85.75;101093.50;5046049;28;20205;-75
2021/03/17 04:23:46;;;;;;;6.50;3.10;;;;;;;1.93;85.73;101098.50;5042038;28;20229;-75
2021/03/17 04:26:13;;;;;;;8.40;3.47;;;;;;;1.98;85.92;101097.78;5045687;28;20742;-76
2021/03/17 04:28:41;;;;;;;9.50;3.43;;;;;;;1.94;85.90;101101.13;5051405;28;20664;-75
2021/03/17 04:31:08;;;;;;;5.40;3.90;;;;;;;1.98;86.32;101102.06;5039163;28;20746;-75
2021/03/17 04:33:37;;;;;;;5.20;3.67;;;;;;;2.00;86.01;101102.97;5038397;28;20240;-75
2021/03/17 04:36:04;;;;;;;5.53;3.93;;;;;;;1.91;85.30;101095.00;5044600;28;20202;-75
2021/03/17 04:38:30;;;;;;;6.03;3.57;;;;;;;1.90;85.61;101106.13;5043778;28;20704;-75
2021/03/17 04:40:57;;;;;;;8.53;4.70;;;;;;;1.90;85.98;101096.72;5043026;28;20201;-75
2021/03/17 04:43:23;;;;;;;9.93;5.53;;;;;;;1.97;85.69;101100.31;5044249;28;20218;-75
2021/03/17 04:45:50;;;;;;;7.93;3.77;;;;;;;1.96;85.62;101104.59;5042177;28;20251;-75
2021/03/17 04:48:17;;;;;;;7.63;4.23;;;;;;;1.94;85.72;101105.38;5045797;28;20207;-75
2021/03/17 04:50:47;;;;;;;7.23;4.53;;;;;;;1.90;86.34;101117.31;5041105;28;20205;-75
2021/03/17 04:53:14;;;;;;;6.23;4.23;;;;;;;1.80;86.52;101115.28;5046005;28;20271;-75
2021/03/17 04:55:40;;;;;;;4.50;4.10;;;;;;;1.78;86.54;101116.97;5040512;28;20202;-74
2021/03/17 04:58:10;;;;;;;7.80;4.70;;;;;;;1.70;86.94;101126.16;5051040;28;20244;-74
2021/03/17 05:00:37;;;;;;;6.97;4.73;;;;;;;1.69;87.56;101109.88;5043042;28;20205;-75
2021/03/17 05:03:06;;;;;;;7.00;4.60;;;;;;;1.79;87.10;101116.13;5038428;28;20253;-75
2021/03/17 05:05:34;;;;;;;9.07;3.90;;;;;;;1.83;86.81;101114.53;5039663;28;20209;-75
2021/03/17 05:08:05;;;;;;;5.33;4.37;;;;;;;1.77;87.36;101118.66;5047937;28;20218;-74
2021/03/17 05:10:31;;;;;;;5.33;3.90;;;;;;;1.81;86.64;101118.75;5039436;28;20250;-75
2021/03/17 05:12:58;;;;;;;9.13;4.93;;;;;;;1.78;86.88;101119.53;5047392;28;20637;-74
2021/03/17 05:15:24;;;;;;;8.40;4.37;;;;;;;1.82;87.25;101123.06;5038654;28;20202;-75
2021/03/17 05:17:51;;;;;;;9.17;4.50;;;;;;;1.84;86.84;101123.97;5048802;28;20225;-74
2021/03/17 05:20:19;;;;;;;7.40;4.93;;;;;;;1.82;86.41;101121.34;5037196;28;20194;-75
2021/03/17 05:22:47;;;;;;;4.87;3.83;;;;;;;1.82;86.98;101128.22;5045434;28;20249;-75
2021/03/17 05:25:19;;;;;;;10.10;4.90;;;;;;;1.69;87.29;101129.59;5046137;28;20540;-74
2021/03/17 05:27:47;;;;;;;8.47;5.57;;;;;;;1.68;87.31;101133.84;5043712;28;20198;-75
2021/03/17 05:30:15;;;;;;;5.30;4.77;;;;;;;1.68;88.08;101127.81;5044880;28;20259;-75
2021/03/17 05:32:42;;;;;;;9.40;5.43;;;;;;;1.61;87.94;101125.94;5058862;22;20226;-73
2021/03/17 05:35:10;;;;;;;8.00;5.27;;;;;;;1.55;87.89;101124.91;5045973;28;20566;-74
2021/03/17 05:37:37;;;;;;;7.70;5.47;;;;;;;1.58;88.39;101119.84;5050665;28;20229;-74
2021/03/17 05:40:06;;;;;;;6.53;4.97;;;;;;;1.65;88.15;101125.19;5050413;28;20197;-75
2021/03/17 05:42:33;;;;;;;8.37;5.00;;;;;;;1.72;87.79;101127.09;5050987;28;20227;-74
2021/03/17 05:44:59;;;;;;;5.53;4.57;;;;;;;1.81;86.92;101129.06;5051022;28;20205;-74
2021/03/17 05:47:25;;;;;;;5.87;4.60;;;;;;;1.85;86.65;101131.75;5051443;28;20217;-75
2021/03/17 05:49:52;;;;;;;7.97;4.47;;;;;;;1.92;85.80;101132.78;5050543;28;20201;-74
2021/03/17 05:52:19;;;;;;;11.13;4.30;;;;;;;1.78;86.49;101132.41;5051294;28;20209;-74
2021/03/17 05:54:46;;;;;;;4.57;4.13;;;;;;;1.68;86.84;101133.84;5053388;28;20568;-74
2021/03/17 05:57:14;;;;;;;6.20;4.10;;;;;;;1.71;86.40;101130.50;5055266;28;20248;-74
2021/03/17 05:59:41;;;;;;;4.40;3.40;;;;;;;1.63;86.76;101139.72;5054392;28;20205;-74
2021/03/17 06:02:08;;;;;;;8.50;4.93;;;;;;;1.55;87.31;101134.34;5055401;28;20236;-74
2021/03/17 06:04:37;;;;;;;5.57;4.50;;;;;;;1.56;87.15;101134.34;5054425;28;20228;-75
2021/03/17 06:07:10;;;;;;;7.00;4.53;;;;;;;1.60;87.58;101137.91;5055027;28;20247;-74
2021/03/17 06:09:37;;;;;;;6.90;4.50;;;;;;;1.60;87.58;101143.03;5054043;28;20683;-74
2021/03/17 06:12:07;;;;;;;6.50;4.60;;;;;;;1.62;87.22;101148.25;5054877;28;20258;-74
2021/03/17 06:14:35;;;;;;;4.60;4.17;;;;;;;1.78;87.04;101145.25;5054103;28;20229;-74
2021/03/17 06:17:04;;;;;;;6.83;3.40;;;;;;;1.98;86.90;101150.97;5046404;28;20718;-74
2021/03/17 06:19:32;;;;;;;5.37;3.47;;;;;;;2.10;86.44;101151.31;5054190;28;20213;-75
2021/03/17 06:21:59;;;;;;;5.20;3.43;;;;;;;2.09;85.14;101152.16;5054833;28;20241;-74
2021/03/17 06:24:26;;;;;;;6.60;3.10;;;;;;;2.10;84.40;101153.91;5053923;28;20712;-73
2021/03/17 06:26:52;;;;;;;4.67;2.73;;;;;;;1.93;84.82;101161.16;5054148;28;20661;-74
2021/03/17 06:29:19;;;;;;;4.27;2.93;;;;;;;2.06;84.12;101164.94;5053858;28;20201;-75
2021/03/17 06:31:47;;;;;;;5.87;3.50;;;;;;;1.90;84.18;101162.75;5054599;28;20259;-74
2021/03/17 06:34:14;;;;;;;8.03;3.20;;;;;;;2.07;84.62;101163.25;5053765;28;20233;-74
2021/03/17 06:36:50;;;;;;;5.27;2.80;;;;;;;2.07;84.71;101158.97;5054605;28;20225;-75
2021/03/17 06:39:16;;;;;;;4.83;3.70;;;;;;;1.92;84.20;101162.00;5053489;28;20208;-74
2021/03/17 06:41:46;;;;;;;8.73;2.93;;;;;;;2.13;84.52;101159.13;5054208;28;20199;-74
2021/03/17 06:44:12;;;;;;;3.43;2.87;;;;;;;2.02;83.84;101160.53;5054013;28;20221;-73
2021/03/17 06:46:38;;;;;;;7.10;3.27;;;;;;;2.05;83.91;101154.59;5054062;28;20197;-74
2021/03/17 06:49:04;;;;;;;5.13;3.03;;;;;;;2.07;84.25;101156.38;5053636;28;20263;-73
2021/03/17 06:51:32;;;;;;;4.27;2.90;;;;;;;2.11;83.16;101165.06;5054383;28;20205;-74
2021/03/17 06:53:59;;;;;;;5.33;3.03;;;;;;;2.13;84.26;101161.69;5053472;28;20224;-74
2021/03/17 06:56:27;;;;;;;6.27;3.47;;;;;;;2.25;83.91;101171.44;5054108;28;20205;-73
2021/03/17 06:58:54;;;;;;;7.43;2.53;;;;;;;2.31;83.32;101158.72;5053446;28;20206;-73
2021/03/17 07:01:40;;;;;;;5.87;2.67;;;;;;;2.35;82.51;101159.69;5053673;28;20676;-75
2021/03/17 07:04:07;;;;;;;2.37;2.10;;;;;;;2.27;83.00;101162.06;5053364;28;20261;-74
2021/03/17 07:06:35;;;;;;;6.80;2.37;;;;;;;2.29;82.24;101164.69;5052942;28;20548;-74
2021/03/17 07:09:14;;;;;;;9.40;3.30;;;;;;;2.27;82.46;101166.34;5053127;28;20194;-73
2021/03/17 07:11:40;;;;;;;9.60;2.77;;;;;;;2.29;82.79;101167.25;5053696;28;20201;-75
2021/03/17 07:14:06;;;;;;;4.27;2.60;;;;;;;2.39;82.97;101170.09;5052958;28;20221;-74
2021/03/17 07:16:35;;;;;;;6.30;2.87;;;;;;;2.53;82.47;101167.88;5053916;28;20197;-73
2021/03/17 07:19:02;;;;;;;3.57;2.47;;;;;;;2.45;81.59;101164.25;5052669;28;20197;-73
2021/03/17 07:21:36;;;;;;;4.87;3.07;;;;;;;2.38;81.44;101168.38;5053296;28;20692;-74
2021/03/17 07:24:03;;;;;;;4.93;2.47;;;;;;;2.49;81.67;101168.66;5053868;28;20621;-77
2021/03/17 07:26:31;;;;;;;2.40;1.90;;;;;;;2.53;81.40;101173.03;5054273;28;20206;-77
2021/03/17 07:29:12;;;;;;;4.63;2.37;;;;;;;2.56;81.08;101173.13;5055872;28;20236;-78
2021/03/17 07:31:41;;;;;;;4.43;2.50;;;;;;;2.63;80.68;101169.00;5070751;28;20208;-79
2021/03/17 07:34:09;;;;;;;2.93;2.03;;;;;;;2.57;80.44;101180.00;5062595;28;20764;-78
2021/03/17 07:36:39;;;;;;;4.70;2.43;;;;;;;2.56;81.15;101172.28;5071131;28;20201;-77
2021/03/17 07:39:09;;;;;;;6.37;2.33;;;;;;;2.42;80.01;101171.91;5069342;28;20195;-78
2021/03/17 07:41:36;;;;;;;3.10;2.00;;;;;;;2.59;80.01;101177.47;5071149;28;20205;-77
2021/03/17 07:44:05;;;;;;;7.93;2.70;;;;;;;2.74;80.42;101180.47;5069574;28;20307;-78
2021/03/17 07:46:32;;;;;;;4.63;2.63;;;;;;;2.77;79.47;101179.66;5073123;28;20213;-78
2021/03/17 07:48:59;;;;;;;4.40;2.40;;;;;;;2.77;79.70;101177.97;5068850;28;20205;-78
2021/03/17 07:51:26;;;;;;;3.57;2.40;;;;;;;2.80;79.43;101184.91;5071871;28;20208;-78
2021/03/17 07:53:55;;;;;;;4.63;2.70;;;;;;;2.89;79.12;101179.94;5068635;28;20286;-78
2021/03/17 07:56:22;;;;;;;8.20;2.13;;;;;;;2.89;77.62;101177.38;5070709;28;20205;-79
2021/03/17 07:58:50;;;;;;;5.83;2.93;;;;;;;2.97;78.10;101191.34;5064661;28;20232;-79
2021/03/17 08:01:17;;;;;;;3.10;2.30;;;;;;;2.95;77.79;101184.38;5067935;28;20196;-79
2021/03/17 08:03:46;;;;;;;6.40;2.37;;;;;;;2.97;77.28;101183.63;5067441;28;20212;-77
2021/03/17 08:06:14;;;;;;;5.67;2.10;;;;;;;2.95;76.69;101181.81;5070707;28;20216;-76
2021/03/17 08:08:41;;;;;;;4.60;2.83;;;;;;;2.95;77.71;101187.88;5066394;28;20452;-77
2021/03/17 08:11:10;;;;;;;4.27;2.30;;;;;;;2.93;77.25;101188.63;5061528;28;20209;-77
2021/03/17 08:13:37;;;;;;;4.00;2.30;;;;;;;3.15;77.43;101188.34;5058107;28;20614;-77
2021/03/17 08:16:03;;;;;;;3.47;2.50;;;;;;;3.24;76.75;101181.63;5056186;28;20213;-77
2021/03/17 08:18:39;;;;;;;2.97;2.10;;;;;;;3.13;75.53;101184.84;5058182;28;20221;-77
2021/03/17 08:21:06;;;;;;;3.60;2.50;;;;;;;3.33;75.46;101181.81;5054716;28;20217;-75
2021/03/17 08:23:40;;;;;;;5.57;2.20;;;;;;;3.42;74.22;101186.34;5057879;28;20228;-76
2021/03/17 08:26:06;;;;;;;4.13;2.40;;;;;;;3.42;75.26;101187.22;5056276;28;20229;-77
2021/03/17 08:28:45;;;;;;;2.63;2.43;;;;;;;3.39;75.85;101182.00;5060383;28;20210;-77
2021/03/17 08:31:11;;;;;;;5.03;2.90;;;;;;;3.33;75.19;101187.88;5059142;28;20205;-74
2021/03/17 08:33:39;;;;;;;3.37;2.50;;;;;;;3.29;75.22;101185.19;5061324;28;20237;-75
2021/03/17 08:36:10;;;;;;;3.53;2.23;;;;;;;3.49;74.38;101188.19;5058063;28;20205;-77
2021/03/17 08:38:52;;;;;;;5.63;2.87;;;;;;;3.51;74.67;101191.72;5058108;28;20225;-77
2021/03/17 08:41:54;;;;;;;3.80;2.60;;;;;;;3.81;76.04;101188.91;5050489;28;20292;-75
2021/03/17 08:44:22;;;;;;;3.13;2.57;;;;;;;3.82;73.89;101193.22;5051307;28;20228;-74
2021/03/17 08:46:49;;;;;;;4.67;3.43;;;;;;;4.08;75.43;101193.75;5059578;28;20201;-80
2021/03/17 08:49:27;;;;;;;4.87;2.63;;;;;;;4.37;75.38;101198.63;5061514;28;20579;-79
2021/03/17 08:52:08;;;;;;;6.40;3.20;;;;;;;4.59;74.02;101197.28;5070925;28;20200;-80
2021/03/17 08:54:57;;;;;;;3.03;2.23;;;;;;;4.45;68.83;101191.00;5067291;28;20228;-77
2021/03/17 08:57:24;;;;;;;3.43;2.63;;;;;;;4.49;70.07;101197.97;5071464;28;20703;-79
2021/03/17 08:59:52;;;;;;;5.73;2.27;;;;;;;4.44;70.05;101202.16;5069255;28;20209;-81
2021/03/17 09:02:36;;;;;;;4.53;2.67;;;;;;;4.31;72.06;101208.84;5068962;28;20205;-81
2021/03/17 09:05:04;;;;;;;5.30;2.67;;;;;;;4.66;73.04;101212.06;5067710;28;20209;-83
2021/03/17 09:07:31;;;;;;;4.03;2.37;;;;;;;4.85;69.64;101217.56;5070214;28;20255;-82
2021/03/17 09:09:59;;;;;;;4.27;2.50;;;;;;;4.33;66.94;101213.19;5063709;28;20213;-80
2021/03/17 09:12:46;;;;;;;5.13;2.20;;;;;;;4.38;66.22;101209.00;5074921;28;20223;-82
2021/03/17 09:15:15;;;;;;;1.83;1.13;;;;;;;4.31;64.94;101219.19;5065774;28;20193;-80
2021/03/17 09:17:43;;;;;;;3.30;1.87;;;;;;;4.24;64.75;101220.78;5071646;28;20220;-82
2021/03/17 09:20:13;;;;;;;2.10;1.57;;;;;;;3.96;62.63;101214.16;5070871;28;20190;-81
2021/03/17 09:22:49;;;;;;;2.50;1.20;;;;;;;4.07;63.77;101214.41;5070503;28;20197;-82
2021/03/17 09:25:19;;;;;;;4.97;1.90;;;;;;;4.15;63.25;101211.13;5066513;28;20196;-82
2021/03/17 09:27:46;;;;;;;5.77;1.50;;;;;;;4.34;63.68;101212.38;5072645;28;20252;-81
2021/03/17 09:30:16;;;;;;;3.77;2.07;;;;;;;4.49;64.33;101221.25;5070655;28;20581;-80
2021/03/17 09:32:42;;;;;;;5.57;2.33;;;;;;;4.31;65.14;101212.28;5078139;28;20688;-81
2021/03/17 09:35:08;;;;;;;2.53;1.80;;;;;;;4.21;64.46;101220.72;5068259;28;20212;-79
2021/03/17 09:37:34;;;;;;;9.07;4.17;;;;;;;4.21;63.59;101222.44;5076000;28;20220;-81
2021/03/17 09:40:00;;;;;;;2.73;2.10;;;;;;;3.88;63.34;101221.75;5071885;28;20216;-83
2021/03/17 09:42:26;;;;;;;4.90;2.00;;;;;;;3.77;65.38;101221.53;5076879;28;20208;-83
2021/03/17 09:44:56;;;;;;;4.93;1.70;;;;;;;3.96;65.60;101225.41;5073651;28;20201;-84
2021/03/17 09:47:27;;;;;;;2.07;1.63;;;;;;;4.01;62.22;101222.03;5078811;28;20201;-86
2021/03/17 09:49:54;;;;;;;4.77;1.50;;;;;;;4.04;63.64;101220.34;5072303;28;20195;-80
2021/03/17 09:52:20;;;;;;;4.63;1.90;;;;;;;4.16;63.26;101222.31;5079096;28;20193;-83
2021/03/17 09:54:46;;;;;;;5.73;1.20;;;;;;;4.23;61.95;101219.03;5073128;28;20247;-84
2021/03/17 09:57:12;;;;;;;2.87;1.50;;;;;;;4.43;63.52;101226.28;5070738;28;20233;-84
2021/03/17 09:59:40;;;;;;;2.33;2.10;;;;;;;4.50;60.64;101223.84;5070781;28;20201;-84
2021/03/17 10:02:09;;;;;;;2.80;1.30;;;;;;;4.43;60.00;101228.88;5077368;28;20204;-77
2021/03/17 10:04:41;;;;;;;3.97;1.43;;;;;;;4.27;60.18;101225.13;5071711;28;20221;-80
2021/03/17 10:07:09;;;;;;;3.27;1.20;;;;;;;4.26;59.75;101225.97;5072545;28;20225;-81
2021/03/17 10:09:36;;;;;;;3.50;1.07;;;;;;;3.91;59.10;101232.16;5073071;28;20290;-79
2021/03/17 10:12:05;;;;;;;5.10;1.10;;;;;;;3.90;57.94;101229.53;5076818;28;20201;-78
2021/03/17 10:14:32;;;;;;;3.20;1.17;;;;;;;4.03;58.27;101234.13;5067553;28;20220;-80
2021/03/17 10:17:00;;;;;;;3.73;0.90;;;;;;;4.17;56.90;101230.09;5075149;28;20209;-80
2021/03/17 10:19:26;;;;;;;4.33;1.00;;;;;;;4.37;57.46;101230.50;5074140;28;20220;-79
2021/03/17 10:21:55;;;;;;;1.67;0.70;;;;;;;4.12;54.38;101233.44;5071365;28;20254;-79
2021/03/17 10:24:37;;;;;;;4.00;1.23;;;;;;;4.35;58.06;101228.72;5072187;28;20266;-78
2021/03/17 10:27:05;;;;;;;2.97;0.90;;;;;;;4.77;58.34;101233.81;5065332;28;20585;-78
2021/03/17 10:29:31;;;;;;;2.83;1.07;;;;;;;4.87;54.28;101229.66;5072506;28;20197;-78
2021/03/17 10:31:57;;;;;;;7.10;1.37;;;;;;;4.94;53.83;101236.69;5074406;28;20205;-78
2021/03/17 10:34:25;;;;;;;2.47;1.30;;;;;;;4.86;52.75;101227.94;5069317;28;20250;-76
2021/03/17 10:36:52;;;;;;;4.83;1.20;;;;;;;4.87;53.44;101231.38;5071615;28;20229;-76
2021/03/17 10:39:25;;;;;;;4.13;1.80;;;;;;;4.72;53.28;101232.88;5069401;28;20650;-76
2021/03/17 10:41:51;;;;;;;3.27;0.67;;;;;;;4.54;54.36;101223.06;5069617;28;20194;-77
2021/03/17 10:44:19;;;;;;;2.30;1.07;;;;;;;4.89;55.28;101227.13;5069411;28;20240;-77
2021/03/17 10:47:15;;;;;;;3.00;1.10;;;;;;;4.97;55.56;101228.09;5074886;28;20201;-75
2021/03/17 10:49:45;;;;;;;2.65;0.95;;;;;;;5.23;57.08;101230.25;5066531;28;20438;-77
2021/03/17 10:52:12;;;;;;;3.83;1.20;;;;;;;5.36;56.17;101230.47;5070955;28;20731;-74
2021/03/17 10:54:41;;;;;;;3.53;1.37;;;;;;;5.38;57.02;101231.34;5063994;28;20232;-78
2021/03/17 10:57:08;;;;;;;2.07;0.90;;;;;;;5.33;56.81;101230.44;5069272;28;20274;-75
2021/03/17 10:59:36;;;;;;;1.53;1.13;;;;;;;5.38;55.28;101226.19;5068484;28;20215;-77
2021/03/17 11:02:21;;;;;;;2.77;1.00;;;;;;;5.13;55.76;101235.31;5076003;28;20643;-80
2021/03/17 11:05:04;;;;;;;3.47;1.50;;;;;;;5.00;56.06;101233.34;5072772;28;20202;-78
2021/03/17 11:07:56;;;;;;;3.03;1.27;;;;;;;5.34;58.54;101226.97;5072829;28;20204;-75
2021/03/17 11:10:56;;;;;;;3.70;1.50;;;;;;;5.08;56.33;101225.72;5072154;28;20199;-78
2021/03/17 11:13:44;;;;;;;3.30;1.30;;;;;;;5.02;57.30;101231.66;5052603;28;20702;-77
2021/03/17 11:16:26;;;;;;;2.17;1.43;;;;;;;5.27;55.87;101224.28;5072850;28;20219;-75
2021/03/17 11:18:56;;;;;;;1.90;1.30;;;;;;;5.68;56.00;101221.44;5067573;28;20622;-76
2021/03/17 11:21:25;;;;;;;2.60;1.27;;;;;;;5.83;55.80;101220.75;5070374;28;20197;-79
2021/03/17 11:23:52;;;;;;;3.70;2.10;;;;;;;5.17;54.16;101228.44;5074002;28;20218;-79
2021/03/17 11:26:22;;;;;;;2.77;1.30;;;;;;;5.28;55.23;101226.88;5076709;28;20197;-79
2021/03/17 11:28:49;;;;;;;3.13;1.57;;;;;;;5.43;54.01;101223.69;5075987;28;20664;-80
2021/03/17 11:31:25;;;;;;;4.33;1.73;;;;;;;5.65;53.76;101214.50;5080183;28;20564;-78
2021/03/17 11:33:51;;;;;;;9.07;1.43;;;;;;;5.69;55.06;101216.28;5090222;22;20265;-78
2021/03/17 11:36:16;;;;;;;3.10;1.70;;;;;;;5.78;53.74;101210.34;5067490;28;20214;-78
2021/03/17 11:38:42;;;;;;;3.73;1.50;;;;;;;5.85;55.30;101213.91;5068961;28;20720;-78
2021/03/17 11:41:08;;;;;;;3.50;1.53;;;;;;;6.08;53.26;101209.88;5066734;28;20203;-78
2021/03/17 11:43:35;;;;;;;6.07;1.40;;;;;;;6.84;54.79;101208.94;5063347;28;20228;-78